AirNav   Duncan Aviation - Near you to keep you flying
 
 1009 users online  

0CA6 Emory Ranch Airport
Ocotillo, California, USA

GOING TO OCOTILLO?


FAA INFORMATION EFFECTIVE 01 DECEMBER 2022

Location

FAA Identifier: 0CA6
Lat/Long: 32-44-58.0000N 116-00-58.0000W
32-44.966667N 116-00.966667W
32.7494444,-116.0161111
(estimated)
Elevation: 480 ft. / 146 m (estimated)
Variation: 13E (1995)
From city: 2 miles NW of OCOTILLO, CA
Time zone: UTC -8 (UTC -7 during Daylight Saving Time)
Zip code: 92259

Airport Operations

Airport use: Private use. Permission required prior to landing
Activation date: 09/1999
Control tower: no
ARTCC: LOS ANGELES CENTER
FSS: SAN DIEGO FLIGHT SERVICE STATION
Attendance: UNATNDD
Wind indicator: yes
Segmented circle: no

Airport Communications

UNICOM: 123.05

Nearby radio navigation aids

VOR radial/distance  VOR name  Freq  Var
IPLr256/25.6IMPERIAL VORTAC115.9014E
JLIr114/37.1JULIAN VORTAC114.0015E

Airport Services

Runway Information

Runway 4/22

Dimensions: 2400 x 40 ft. / 732 x 12 m
Surface: asphalt
RUNWAY 4  RUNWAY 22
Traffic pattern: leftleft

Airport Ownership and Management from official FAA records

Ownership: Privately-owned
Owner: EMORY TRUST
P.O. BOX 174
OCOTILLO, CA 92259
Phone 702-524-2712
Manager: TRACEY RAYBON
P.O. BOX 342
OCOTILLO, CA 92259
Phone 760-996-3824

Additional Remarks

50 PLINE 1.5 MILES NORTH, NW AND WEST OF ARPT.
NMRS WIND TURBINES 500 FT AGL 1.5 MILES NORTH, NW, NE AND WEST.
FOR CD CTC LOS ANGELES ARTCC AT 661-575-2079.

Instrument Procedures

There are no published instrument procedures at 0CA6.

Some nearby airports with instrument procedures:

KNJK - El Centro NAF Airport (Vraciu Field) (18 nm E)
KIPL - Imperial County Airport (23 nm E)
KBWC - Brawley Municipal Airport (29 nm NE)
KCLR - Cliff Hatfield Memorial Airport (34 nm NE)
L08 - Borrego Valley Airport (34 nm NW)
 
Loc | Ops | Rwys | IFR | FBO | Links
Com | Nav | Svcs | Stats | Notes
Area around 0CA6 (Emory Ranch Airport)
 
Road maps at: MapQuest Bing Google
 
Aerial photo
No photo
 
Sectional chart

 
Airport distance calculator
Flying to Emory Ranch Airport? Find the distance to fly.

From to 0CA6

Sunrise and sunset
Times for 06-Dec-2022
 Local
(UTC-8)
 Zulu
(UTC)
Morning civil twilight06:0714:07
Sunrise06:3414:34
Sunset16:3700:37
Evening civil twilight17:0401:04

Current date and time
Zulu (UTC)  07-Dec-2022 04:36:53
Local (UTC-8)  06-Dec-2022 20:36:53
 
METAR
KNJK 
18nm E 
070356Z 29003KT 10SM FEW250 14/01 A3001 RMK SLP176 T01390006
KIPL 
22nm E 
070353Z AUTO 00000KT 10SM CLR 13/02 A2999 RMK AO2 SLP155 T01330017
KL08 
34nm NW 
070415Z AUTO 14004KT 10SM CLR 15/03 A3000 RMK AO2
TAF
KNJK 
18nm E 
0623/0723 35008KT 9999 FEW150 FEW250 QNH2994INS FM070100 27009KT 9999 FEW150 QNH2993INS AUTOMATED SENSOR METWATCH 0707 TIL 0714 T22/0623Z T08/0714Z FS30130
KIPL 
22nm E 
061720Z 0618/0718 28010KT P6SM SCT150 BKN250 TEMPO 0702/0706 27013G18KT
NOTAMs
Click for the latest NOTAMs
NOTAMs are issued by the DoD/FAA and will open in a separate window not controlled by AirNav.

 

 
 

Would you like to see your business listed on this page?

 If your business provides an interesting product or service to pilots, flight crews, aircraft, or users of the Emory Ranch Airport, you should consider listing it here.  To start the listing process, click on the button below
 
Add a business
 

Other Pages about Emory Ranch Airport

Update a link
 
Copyright © AirNav, LLC. All rights reserved. Privacy Policy  Contact